Time;durP1;ratioP1;P1;durP2;ratioP2;P2;SDS_P1;SDS_P2;PMS_P1;PMS_P2;Temp;Humidity;BMP_temperature;BMP_pressure;BME280_temperature;BME280_humidity;BME280_pressure;Samples;Min_cycle;Max_cycle;Signal;HPM_P1;HPM_P2
2022/04/07 00:02:04;;;;;;;38.40;22.15;;;;;;;6.02;100.00;79915.73;1694444;84;21129;-59
2022/04/07 00:04:31;;;;;;;44.18;22.93;;;;;;;6.02;100.00;80424.42;1696074;82;21118;-60
2022/04/07 00:06:59;;;;;;;37.35;21.73;;;;;;;6.01;100.00;82285.59;1696143;84;21087;-60
2022/04/07 00:09:26;;;;;;;44.10;23.12;;;;;;;5.96;100.00;86008.34;1695380;83;21096;-60
2022/04/07 00:11:53;;;;;;;40.67;22.95;;;;;;;5.93;100.00;88378.98;1672701;84;21060;-60
2022/04/07 00:14:21;;;;;;;41.02;21.73;;;;;;;5.90;100.00;89901.23;1696195;84;21032;-59
2022/04/07 00:16:50;;;;;;;38.13;21.90;;;;;;;5.87;100.00;90746.27;1695757;83;21095;-59
2022/04/07 00:19:17;;;;;;;38.38;22.35;;;;;;;5.84;100.00;92270.05;1695664;82;20992;-59
2022/04/07 00:21:46;;;;;;;35.10;20.82;;;;;;;5.80;100.00;92943.95;1695886;82;21142;-60
2022/04/07 00:24:13;;;;;;;35.10;20.25;;;;;;;5.78;100.00;92769.99;1696094;84;21057;-59
2022/04/07 00:26:40;;;;;;;34.95;21.00;;;;;;;5.76;100.00;92936.63;1696792;84;20938;-60
2022/04/07 00:29:07;;;;;;;32.48;20.90;;;;;;;5.72;100.00;93611.34;1695573;84;21130;-62
2022/04/07 00:31:40;;;;;;;34.88;21.40;;;;;;;5.67;100.00;95132.59;1696078;84;21539;-59
2022/04/07 00:34:09;;;;;;;32.80;19.73;;;;;;;5.64;100.00;96147.56;1695449;83;21234;-59
2022/04/07 00:36:36;;;;;;;29.10;17.45;;;;;;;5.60;100.00;96990.94;1700481;84;21031;-61
2022/04/07 00:39:04;;;;;;;33.02;18.90;;;;;;;5.55;100.00;97493.47;1708667;83;21077;-62
2022/04/07 00:41:31;;;;;;;33.35;18.73;;;;;;;5.51;100.00;97995.97;1715970;83;21096;-61
2022/04/07 00:43:58;;;;;;;32.42;19.02;;;;;;;5.49;100.00;98332.69;1715693;83;21228;-59
2022/04/07 00:46:26;;;;;;;34.40;18.87;;;;;;;5.45;100.00;97986.55;1711434;83;21139;-60
2022/04/07 00:48:54;;;;;;;32.23;19.10;;;;;;;5.42;100.00;96961.30;1676534;84;21057;-61
2022/04/07 00:51:22;;;;;;;32.08;18.85;;;;;;;5.41;100.00;94411.46;1706933;83;21096;-60
2022/04/07 00:53:49;;;;;;;33.88;19.15;;;;;;;5.42;100.00;91866.01;1704561;83;21025;-60
2022/04/07 00:56:17;;;;;;;30.05;18.65;;;;;;;5.43;100.00;89322.30;1713843;83;20897;-60
2022/04/07 00:58:45;;;;;;;32.30;19.45;;;;;;;5.47;100.00;85935.98;1709314;83;21250;-60
2022/04/07 01:01:12;;;;;;;30.10;18.80;;;;;;;5.50;100.00;83229.96;1716015;82;21062;-60
2022/04/07 01:03:40;;;;;;;35.05;19.50;;;;;;;5.53;100.00;80864.97;1708069;83;21149;-60
2022/04/07 01:06:08;;;;;;;36.45;18.85;;;;;;;5.56;100.00;78499.92;1709917;83;21058;-60
2022/04/07 01:08:35;;;;;;;32.40;18.85;;;;;;;5.59;100.00;75967.97;1709210;83;21458;-59
2022/04/07 01:11:03;;;;;;;41.92;19.37;;;;;;;5.62;100.00;73268.75;1714487;83;21207;-59
2022/04/07 01:13:51;;;;;;;34.35;18.65;;;;;;;5.68;100.00;70912.06;1717858;82;21081;-59
2022/04/07 01:16:19;;;;;;;28.73;17.65;;;;;;;5.70;100.00;69227.70;1715298;83;20961;-59
2022/04/07 01:18:48;;;;;;;34.33;16.52;;;;;;;5.76;100.00;66535.33;1704225;83;21036;-59
2022/04/07 01:21:16;;;;;;;29.00;16.77;;;;;;;5.80;100.00;64180.44;1704113;83;21017;-59
2022/04/07 01:24:06;;;;;;;27.75;15.35;;;;;;;5.82;100.00;62667.22;1706011;83;21256;-59
2022/04/07 01:26:45;;;;;;;25.92;15.18;;;;;;;5.87;100.00;61830.20;1717360;82;21140;-59
2022/04/07 01:29:15;;;;;;;26.97;15.30;;;;;;;5.92;100.00;60688.98;1709842;83;21049;-59
2022/04/07 01:31:42;;;;;;;28.92;15.83;;;;;;;5.95;100.00;59006.47;1707336;83;21284;-59
2022/04/07 01:34:14;;;;;;;24.80;14.93;;;;;;;5.99;100.00;57467.57;1711741;83;21005;-58
2022/04/07 01:36:43;;;;;;;28.70;14.40;;;;;;;6.01;100.00;56628.70;1707187;83;21284;-59
2022/04/07 01:39:13;;;;;;;29.60;15.65;;;;;;;6.03;100.00;56125.74;1696540;83;21139;-59
2022/04/07 01:41:41;;;;;;;22.73;14.13;;;;;;;6.04;100.00;55117.99;1696371;84;21098;-59
2022/04/07 01:44:08;;;;;;;22.52;14.55;;;;;;;6.07;100.00;53608.31;1695090;83;21111;-59
2022/04/07 01:46:35;;;;;;;33.42;16.93;;;;;;;6.12;100.00;52268.54;1696191;84;21502;-59
2022/04/07 01:49:03;;;;;;;28.20;15.40;;;;;;;6.14;100.00;51262.64;1696138;84;21240;-60
2022/04/07 01:51:31;;;;;;;30.60;15.48;;;;;;;6.16;100.00;50425.33;1696626;84;20981;-59
2022/04/07 01:53:58;;;;;;;30.10;15.88;;;;;;;6.20;100.00;49085.50;1697213;84;21064;-61
2022/04/07 01:56:26;;;;;;;30.12;15.48;;;;;;;6.22;100.00;48751.59;1695462;84;21127;-60
2022/04/07 01:58:54;;;;;;;26.55;14.90;;;;;;;6.26;100.00;47412.62;1696099;82;21056;-60
2022/04/07 02:01:21;;;;;;;31.57;15.53;;;;;;;6.30;100.00;46073.59;1695965;84;21246;-58
2022/04/07 02:03:49;;;;;;;30.40;14.87;;;;;;;6.34;100.00;45237.97;1696706;84;21460;-59
2022/04/07 02:06:17;;;;;;;27.50;12.65;;;;;;;6.37;100.00;44402.05;1696207;84;21056;-59
2022/04/07 02:08:45;;;;;;;23.67;13.25;;;;;;;6.39;100.00;43397.85;1695826;84;21667;-59
2022/04/07 02:11:13;;;;;;;28.38;13.90;;;;;;;6.43;100.00;42563.00;1695725;84;21073;-59
2022/04/07 02:13:41;;;;;;;26.02;12.28;;;;;;;6.49;100.00;41394.68;1695338;83;21823;-59
2022/04/07 02:16:10;;;;;;;24.95;13.08;;;;;;;6.52;100.00;40894.36;1695917;83;21506;-60
2022/04/07 02:18:38;;;;;;;27.62;12.37;;;;;;;6.57;100.00;39558.08;1695860;82;21131;-59
2022/04/07 02:21:06;;;;;;;35.75;12.70;;;;;;;6.61;100.00;39057.86;1696308;84;21927;-60
2022/04/07 02:23:41;;;;;;;38.30;11.00;;;;;;;6.64;100.00;38892.56;1695182;82;21464;-59
2022/04/07 02:26:05;;;;;;;32.20;9.48;;;;;;;6.67;100.00;38559.80;1695548;84;21563;-60
2022/04/07 02:28:34;;;;;;;39.70;9.85;;;;;;;6.69;100.00;38393.77;1672500;84;21042;-59
2022/04/07 02:31:01;;;;;;;38.00;9.40;;;;;;;6.71;100.00;38060.66;1695745;83;21672;-59
2022/04/07 02:33:29;;;;;;;33.70;9.95;;;;;;;6.72;100.00;37893.57;1696270;84;20994;-59
2022/04/07 02:35:57;;;;;;;25.00;10.50;;;;;;;6.73;100.00;37727.20;1695733;84;21545;-59
2022/04/07 02:38:24;;;;;;;41.92;10.20;;;;;;;6.76;100.00;37058.96;1696606;84;21204;-60
2022/04/07 02:40:54;;;;;;;41.08;9.75;;;;;;;6.79;100.00;36224.45;1671305;82;21066;-59
2022/04/07 02:43:21;;;;;;;33.30;9.15;;;;;;;6.82;100.00;34887.44;1696154;84;20975;-59
2022/04/07 02:45:48;;;;;;;38.85;9.20;;;;;;;6.85;100.00;34554.78;1696117;84;21433;-60
2022/04/07 02:48:16;;;;;;;33.23;7.97;;;;;;;6.85;100.00;34722.08;1696627;82;21002;-59
2022/04/07 02:50:45;;;;;;;29.65;7.60;;;;;;;6.86;100.00;34388.14;1696873;84;21068;-59
2022/04/07 02:53:15;;;;;;;38.38;7.92;;;;;;;6.88;100.00;34055.17;1696685;84;21068;-60
2022/04/07 02:55:43;;;;;;;28.55;7.60;;;;;;;6.88;100.00;33887.89;1695948;83;21070;-60
2022/04/07 02:58:11;;;;;;;19.07;7.42;;;;;;;6.91;100.00;33721.89;1696336;84;21521;-59
2022/04/07 03:00:39;;;;;;;14.60;7.20;;;;;;;6.91;100.00;33387.69;1696654;84;21261;-60
2022/04/07 03:03:08;;;;;;;12.65;6.90;;;;;;;6.93;100.00;32552.75;1696338;84;21321;-60
2022/04/07 03:05:36;;;;;;;19.57;7.10;;;;;;;6.95;100.00;32219.24;1696576;84;21264;-60
2022/04/07 03:08:03;;;;;;;18.27;7.50;;;;;;;6.96;100.00;31885.45;1695309;82;21052;-60
2022/04/07 03:10:32;;;;;;;17.77;7.00;;;;;;;6.98;100.00;31552.29;1696109;82;21419;-61
2022/04/07 03:13:00;;;;;;;13.93;6.67;;;;;;;7.00;100.00;31386.29;1695724;84;21124;-60
2022/04/07 03:15:27;;;;;;;18.65;6.45;;;;;;;7.00;100.00;30885.09;1695919;82;21317;-60
2022/04/07 03:17:54;;;;;;;23.32;7.00;;;;;;;7.02;100.00;30718.82;1695312;82;21095;-61
2022/04/07 03:20:22;;;;;;;20.27;6.65;;;;;;;7.03;100.00;30385.40;1696451;83;21075;-59
2022/04/07 03:22:51;;;;;;;20.17;6.97;;;;;;;7.05;100.00;29884.89;1695743;83;21261;-60
2022/04/07 03:25:18;;;;;;;17.02;6.95;;;;;;;7.09;100.00;29719.75;1695760;83;21138;-61
2022/04/07 03:27:47;;;;;;;18.95;7.12;;;;;;;7.10;100.00;29553.47;1695400;84;21017;-60
2022/04/07 03:30:14;;;;;;;24.02;6.20;;;;;;;7.12;100.00;29888.84;1696046;84;20956;-59
2022/04/07 03:32:43;;;;;;;18.15;5.72;;;;;;;7.14;100.00;29722.83;1696517;84;21102;-60
2022/04/07 03:35:11;;;;;;;20.48;5.55;;;;;;;7.16;100.00;29723.96;1697039;83;21084;-60
2022/04/07 03:37:38;;;;;;;19.70;5.87;;;;;;;7.18;100.00;30059.10;1696821;82;21029;-60
2022/04/07 03:40:09;;;;;;;18.17;5.62;;;;;;;7.19;100.00;30728.09;1696315;84;21462;-60
2022/04/07 03:42:36;;;;;;;14.03;5.15;;;;;;;7.21;100.00;30729.24;1696102;83;21041;-59
2022/04/07 03:45:05;;;;;;;18.30;5.75;;;;;;;7.22;100.00;31231.75;1696491;83;21093;-60
2022/04/07 03:47:32;;;;;;;19.50;6.35;;;;;;;7.23;100.00;31734.05;1697111;84;21053;-60
2022/04/07 03:50:00;;;;;;;18.92;5.55;;;;;;;7.25;100.00;31902.21;1696185;82;21059;-61
2022/04/07 03:52:27;;;;;;;12.98;5.67;;;;;;;7.27;100.00;31903.70;1695901;83;21721;-59
2022/04/07 03:54:55;;;;;;;18.95;6.28;;;;;;;7.29;100.00;32406.79;1695387;84;21076;-60
2022/04/07 03:57:23;;;;;;;13.50;5.67;;;;;;;7.31;100.00;32407.69;1696827;83;21021;-60
2022/04/07 03:59:52;;;;;;;27.77;6.08;;;;;;;7.33;100.00;32408.90;1695814;83;21045;-60
2022/04/07 04:02:21;;;;;;;15.50;5.35;;;;;;;7.35;100.00;32744.77;1697286;83;21440;-59
2022/04/07 04:04:49;;;;;;;17.57;5.17;;;;;;;7.37;100.00;33080.69;1695818;84;21684;-60
2022/04/07 04:07:16;;;;;;;14.40;5.47;;;;;;;7.39;100.00;34086.26;1696143;83;21483;-60
2022/04/07 04:09:46;;;;;;;19.37;5.08;;;;;;;7.41;100.00;34422.07;1695184;82;21533;-61
2022/04/07 04:12:13;;;;;;;19.62;5.50;;;;;;;7.41;100.00;34924.74;1698183;82;21062;-59
2022/04/07 04:14:41;;;;;;;21.12;5.60;;;;;;;7.45;100.00;35094.81;1695819;83;21649;-59
2022/04/07 04:17:08;;;;;;;28.42;5.90;;;;;;;7.47;100.00;36100.52;1695758;84;21189;-59
2022/04/07 04:19:37;;;;;;;16.57;5.67;;;;;;;7.47;100.00;36770.72;1697105;84;21041;-59
2022/04/07 04:22:05;;;;;;;14.53;5.05;;;;;;;7.50;100.00;36772.75;1695969;83;21053;-60
2022/04/07 04:24:32;;;;;;;17.23;5.73;;;;;;;7.54;100.00;36775.47;1695518;84;21093;-61
2022/04/07 04:27:00;;;;;;;16.77;5.87;;;;;;;7.57;100.00;36777.86;1695739;83;21033;-61
2022/04/07 04:29:28;;;;;;;17.12;5.75;;;;;;;7.60;100.00;37282.74;1696087;82;21243;-61
2022/04/07 04:31:55;;;;;;;17.57;5.70;;;;;;;7.64;100.00;37788.12;1696354;84;21136;-59
2022/04/07 04:34:23;;;;;;;22.30;5.42;;;;;;;7.67;100.00;38125.57;1696906;83;21053;-61
2022/04/07 04:36:50;;;;;;;21.93;5.75;;;;;;;7.72;100.00;38296.43;1696484;84;21004;-60
2022/04/07 04:39:17;;;;;;;20.60;5.47;;;;;;;7.78;100.00;38803.52;1695366;82;21088;-59
2022/04/07 04:41:44;;;;;;;19.32;5.22;;;;;;;7.86;100.00;39816.04;1693970;83;21215;-60
2022/04/07 04:44:12;;;;;;;14.18;5.00;;;;;;;7.89;100.00;41832.82;1694783;84;21068;-60
2022/04/07 04:46:40;;;;;;;13.78;5.00;;;;;;;7.94;100.00;44020.26;1695027;84;21222;-60
2022/04/07 04:49:07;;;;;;;17.30;5.05;;;;;;;7.99;100.00;46546.26;1695241;83;21244;-60
2022/04/07 04:51:34;;;;;;;21.27;5.65;;;;;;;8.05;100.00;48401.70;1694580;83;21043;-59
2022/04/07 04:54:01;;;;;;;17.77;5.20;;;;;;;8.11;100.00;51269.61;1694936;84;22442;-61
2022/04/07 04:56:30;;;;;;;12.93;4.25;;;;;;;8.17;100.00;53128.91;1695244;84;20945;-62
2022/04/07 04:58:57;;;;;;;14.68;4.80;;;;;;;8.23;100.00;57014.38;1694842;83;21489;-60
2022/04/07 05:01:24;;;;;;;16.35;5.12;;;;;;;8.29;100.00;61562.08;1695287;84;21071;-60
2022/04/07 05:03:52;;;;;;;17.10;4.90;;;;;;;8.36;100.00;63278.20;1695414;84;20972;-60
2022/04/07 05:06:20;;;;;;;16.80;5.12;;;;;;;8.43;100.00;67856.06;1695136;84;21780;-60
2022/04/07 05:08:48;;;;;;;16.60;4.65;;;;;;;8.52;100.00;72951.98;1694804;82;21514;-60
2022/04/07 05:11:16;;;;;;;17.98;5.87;;;;;;;8.60;100.00;77376.58;1694999;84;21569;-61
2022/04/07 05:13:44;;;;;;;12.05;4.75;;;;;;;8.68;100.00;85893.67;1694121;84;21136;-60
2022/04/07 05:16:15;;;;;;;23.65;5.37;;;;;;;8.73;100.00;97332.55;1695170;83;21099;-60
2022/04/07 05:18:48;;;;;;;17.45;5.12;;;;;;;8.80;100.00;105901.49;1693965;82;21193;-60
2022/04/07 05:21:14;;;;;;;15.68;5.45;;;;;;;8.88;100.00;114495.45;1694747;84;21134;-60
2022/04/07 05:23:43;;;;;;;16.20;4.65;;;;;;;8.94;100.00;131210.53;1694974;82;33526;-61
2022/04/07 05:26:14;;;;;;;14.15;4.83;;;;;;;8.98;100.00;149399.81;1695170;83;21588;-60
2022/04/07 05:28:44;;;;;;;15.88;4.62;;;;;;;9.00;100.00;149917.47;1694970;84;21087;-62
2022/04/07 05:31:11;;;;;;;12.70;4.87;;;;;;;9.03;100.00;149925.23;1695387;84;21738;-60
2022/04/07 05:33:40;;;;;;;12.53;4.90;;;;;;;9.09;100.00;149940.77;1694148;83;21107;-61
2022/04/07 05:36:09;;;;;;;11.22;4.45;;;;;;;9.16;100.00;149958.91;1694414;84;21048;-60
2022/04/07 05:38:36;;;;;;;12.70;5.03;;;;;;;9.21;100.00;149969.31;1694880;82;21017;-60
2022/04/07 05:41:03;;;;;;;14.63;4.30;;;;;;;9.28;100.00;149987.44;1695004;84;21454;-59
2022/04/07 05:43:30;;;;;;;13.83;4.75;;;;;;;9.37;100.00;150010.77;1694948;84;21891;-59
2022/04/07 05:45:58;;;;;;;15.45;5.00;;;;;;;9.48;100.00;150036.72;1694933;84;20984;-59
2022/04/07 05:48:25;;;;;;;17.80;4.87;;;;;;;9.60;100.00;150069.12;1695287;83;21395;-61
2022/04/07 05:50:54;;;;;;;16.00;4.12;;;;;;;9.73;100.00;150101.55;1695262;84;21481;-61
2022/04/07 05:53:23;;;;;;;15.60;4.03;;;;;;;9.86;100.00;150132.70;1695453;83;21454;-61
2022/04/07 05:55:50;;;;;;;11.50;3.58;;;;;;;9.97;100.00;150161.20;1695362;84;21224;-61
2022/04/07 05:58:19;;;;;;;14.25;3.72;;;;;;;10.09;100.00;150191.03;1695383;83;21076;-60
2022/04/07 06:00:46;;;;;;;12.40;3.80;;;;;;;10.27;100.00;150235.16;1695175;83;21143;-60
2022/04/07 06:03:14;;;;;;;13.30;3.80;;;;;;;10.56;100.00;150309.17;1695495;84;21239;-59
2022/04/07 06:05:41;;;;;;;12.73;3.47;;;;;;;11.06;100.00;150433.77;1695014;82;21052;-59
2022/04/07 06:08:10;;;;;;;11.05;2.95;;;;;;;11.78;100.00;150612.94;1695548;84;21043;-61
2022/04/07 06:10:38;;;;;;;8.70;3.22;;;;;;;12.37;100.00;150762.38;1695169;84;21008;-62
2022/04/07 06:13:09;;;;;;;12.60;3.15;;;;;;;12.92;99.85;150898.83;1672710;84;21386;-61
2022/04/07 06:15:36;;;;;;;11.40;2.95;;;;;;;13.65;95.72;151083.55;1695081;84;21040;-59
2022/04/07 06:18:05;;;;;;;7.30;2.75;;;;;;;14.48;91.26;151291.70;1694306;82;21088;-60
2022/04/07 06:20:34;;;;;;;9.78;2.50;;;;;;;15.04;85.53;151432.28;1695232;84;20944;-60
2022/04/07 06:23:03;;;;;;;8.20;2.58;;;;;;;15.22;81.44;151476.56;1694540;83;21126;-60
2022/04/07 06:25:31;;;;;;;10.58;2.42;;;;;;;15.34;78.12;151507.78;1695070;82;21015;-60
2022/04/07 06:28:02;;;;;;;6.17;2.40;;;;;;;15.37;76.18;151514.31;1694577;82;21094;-60
2022/04/07 06:30:28;;;;;;;7.33;2.67;;;;;;;15.23;74.60;151479.16;1694377;83;21060;-60
2022/04/07 06:32:56;;;;;;;8.10;2.30;;;;;;;14.94;73.62;151406.28;1695017;84;21111;-61
2022/04/07 06:35:25;;;;;;;8.83;2.80;;;;;;;14.66;73.54;151335.91;1694227;82;21542;-61
2022/04/07 06:37:58;;;;;;;10.63;2.62;;;;;;;14.41;74.06;151273.45;1694590;82;21031;-61
2022/04/07 06:40:29;;;;;;;9.35;2.70;;;;;;;14.26;74.15;151237.05;1715001;82;21101;-61
2022/04/07 06:42:58;;;;;;;8.00;2.75;;;;;;;14.11;74.39;151198.00;1707483;83;21075;-61
2022/04/07 06:45:29;;;;;;;12.47;2.60;;;;;;;13.93;74.37;151152.48;1712129;83;21807;-60
2022/04/07 06:47:57;;;;;;;8.48;2.85;;;;;;;13.72;74.32;151101.73;1707796;82;21435;-59
2022/04/07 06:50:25;;;;;;;11.33;3.15;;;;;;;13.43;74.66;151028.92;1709365;83;21029;-60
2022/04/07 06:52:55;;;;;;;10.03;2.70;;;;;;;13.19;75.46;150967.75;1676870;83;21123;-61
2022/04/07 06:55:22;;;;;;;11.18;3.30;;;;;;;12.96;75.90;150909.27;1707136;83;21483;-60
2022/04/07 06:57:59;;;;;;;9.40;2.65;;;;;;;12.76;76.71;150859.88;1709023;83;21208;-60
2022/04/07 07:00:29;;;;;;;9.10;2.72;;;;;;;12.59;77.42;150818.28;1709871;82;21014;-60
2022/04/07 07:03:00;;;;;;;9.90;2.80;;;;;;;12.49;78.12;150790.98;1711639;83;21495;-61
2022/04/07 07:05:30;;;;;;;11.10;2.87;;;;;;;12.37;78.54;150761.09;1712986;83;21022;-61
2022/04/07 07:07:57;;;;;;;6.08;3.10;;;;;;;12.26;78.99;150735.09;1718240;82;21271;-60
2022/04/07 07:10:28;;;;;;;10.78;3.25;;;;;;;12.18;79.48;150715.64;1706577;83;21585;-61
2022/04/07 07:12:59;;;;;;;9.28;2.60;;;;;;;12.11;79.63;150697.42;1715806;82;20930;-60
2022/04/07 07:15:26;;;;;;;11.53;3.15;;;;;;;11.99;80.14;150667.50;1716943;83;21077;-61
2022/04/07 07:17:53;;;;;;;10.75;3.17;;;;;;;11.86;80.69;150633.75;1703923;83;21030;-60
2022/04/07 07:20:21;;;;;;;11.78;3.00;;;;;;;11.73;81.18;150602.56;1713408;83;21051;-60
2022/04/07 07:22:49;;;;;;;10.05;3.08;;;;;;;11.66;81.78;150583.06;1710351;82;21209;-61
2022/04/07 07:25:17;;;;;;;8.00;2.83;;;;;;;11.61;82.12;150571.41;1708279;83;21026;-61
2022/04/07 07:27:46;;;;;;;5.53;2.60;;;;;;;11.57;82.48;150560.98;1714281;82;21273;-61
2022/04/07 07:30:16;;;;;;;8.88;2.85;;;;;;;11.50;82.12;150542.81;1679027;83;21043;-60
2022/04/07 07:32:47;;;;;;;8.75;2.90;;;;;;;11.38;82.24;150514.23;1710097;82;21068;-61
2022/04/07 07:35:20;;;;;;;6.45;2.80;;;;;;;11.35;82.43;150506.44;1709804;82;21254;-60
2022/04/07 07:37:51;;;;;;;8.65;2.58;;;;;;;11.30;82.44;150493.47;1713154;83;21009;-60
2022/04/07 07:40:21;;;;;;;10.50;2.80;;;;;;;11.25;82.13;150480.50;1724039;82;21036;-60
2022/04/07 07:42:56;;;;;;;10.58;2.80;;;;;;;11.21;82.17;150470.12;1725483;83;21044;-61
2022/04/07 07:45:30;;;;;;;8.33;3.27;;;;;;;11.18;82.07;150464.94;1725605;83;21134;-60
2022/04/07 07:47:59;;;;;;;7.10;2.80;;;;;;;11.14;81.94;150453.23;1725150;83;21165;-60
2022/04/07 07:50:26;;;;;;;11.15;2.90;;;;;;;11.11;82.11;150446.73;1725643;83;21040;-59
2022/04/07 07:52:54;;;;;;;9.83;2.98;;;;;;;11.10;82.46;150444.14;1728788;81;21035;-59
2022/04/07 07:55:21;;;;;;;7.37;2.58;;;;;;;11.11;82.55;150446.73;1728978;83;21001;-60
2022/04/07 07:57:48;;;;;;;11.95;3.30;;;;;;;11.07;82.41;150435.08;1728678;82;21127;-61
2022/04/07 08:00:18;;;;;;;8.43;2.58;;;;;;;11.02;82.73;150423.37;1728386;81;21185;-61
2022/04/07 08:02:45;;;;;;;11.25;2.47;;;;;;;11.02;82.34;150423.37;1666684;86;20982;-60
2022/04/07 08:05:13;;;;;;;8.98;2.95;;;;;;;10.99;82.02;150415.59;1718838;83;21063;-61
2022/04/07 08:07:41;;;;;;;8.08;2.83;;;;;;;10.95;81.87;150405.22;1719231;83;20961;-60
2022/04/07 08:10:09;;;;;;;10.18;2.75;;;;;;;10.93;81.75;150401.31;1666190;86;21507;-61
2022/04/07 08:12:38;;;;;;;12.65;3.08;;;;;;;10.91;81.71;150396.13;1718877;83;21308;-61
2022/04/07 08:15:09;;;;;;;9.18;2.40;;;;;;;10.87;81.76;150387.02;1719356;81;21063;-61
2022/04/07 08:17:37;;;;;;;6.35;2.37;;;;;;;10.84;81.60;150379.23;1719435;81;21069;-60
2022/04/07 08:20:07;;;;;;;9.68;2.45;;;;;;;10.82;81.68;150374.06;1719273;82;21086;-61
2022/04/07 08:22:34;;;;;;;5.55;2.85;;;;;;;10.79;81.61;150366.28;1711878;83;21024;-60
2022/04/07 08:25:02;;;;;;;7.10;2.30;;;;;;;10.75;81.65;150355.91;1691486;83;21333;-60
2022/04/07 08:27:31;;;;;;;7.03;2.27;;;;;;;10.71;81.77;150345.48;1707064;82;21450;-60
2022/04/07 08:29:58;;;;;;;7.67;2.70;;;;;;;10.69;82.07;150340.30;1720019;82;21043;-60
2022/04/07 08:32:26;;;;;;;9.48;2.50;;;;;;;10.69;82.18;150340.30;1715392;83;20998;-62
2022/04/07 08:34:53;;;;;;;7.15;2.70;;;;;;;10.65;82.00;150329.92;1713990;83;21052;-61
2022/04/07 08:37:21;;;;;;;10.90;2.92;;;;;;;10.59;82.42;150316.95;1719449;81;21579;-59
2022/04/07 08:39:49;;;;;;;12.10;2.95;;;;;;;10.59;82.58;150316.95;1715336;82;21541;-60
2022/04/07 08:42:20;;;;;;;7.35;2.60;;;;;;;10.62;82.73;150322.14;1673467;83;21136;-61
2022/04/07 08:44:49;;;;;;;8.95;3.10;;;;;;;10.63;82.81;150326.05;1718261;82;21049;-60
2022/04/07 08:47:18;;;;;;;10.63;2.95;;;;;;;10.63;82.81;150326.05;1715686;83;21107;-61
2022/04/07 08:49:45;;;;;;;7.42;2.75;;;;;;;10.62;83.06;150322.14;1715318;82;21248;-60
2022/04/07 08:52:12;;;;;;;7.70;2.70;;;;;;;10.62;83.20;150323.47;1716935;83;22218;-61
2022/04/07 08:54:39;;;;;;;12.50;4.00;;;;;;;10.64;83.34;150327.33;1720492;82;21520;-61
2022/04/07 08:57:08;;;;;;;10.20;2.92;;;;;;;10.67;83.39;150335.09;1718794;82;21059;-60
2022/04/07 08:59:36;;;;;;;7.95;2.72;;;;;;;10.74;83.36;150353.31;1717044;82;21076;-60
2022/04/07 09:02:04;;;;;;;9.70;3.47;;;;;;;10.78;82.88;150362.36;1719408;82;21590;-61
2022/04/07 09:04:38;;;;;;;13.80;3.50;;;;;;;10.79;82.74;150366.28;1717958;81;21095;-59
2022/04/07 09:07:06;;;;;;;11.68;3.42;;;;;;;10.81;82.71;150371.47;1693850;81;21092;-59
2022/04/07 09:09:38;;;;;;;10.40;3.20;;;;;;;10.80;82.14;150368.87;1715314;82;20918;-60
2022/04/07 09:12:06;;;;;;;9.70;2.80;;;;;;;10.80;81.99;150368.87;1716175;82;21103;-60
2022/04/07 09:14:37;;;;;;;14.20;3.42;;;;;;;10.78;81.96;150363.69;1718500;82;21474;-59
2022/04/07 09:17:05;;;;;;;7.28;2.98;;;;;;;10.78;82.19;150363.69;1718793;82;21104;-61
2022/04/07 09:19:35;;;;;;;21.50;3.55;;;;;;;10.81;82.05;150371.47;1689457;81;21098;-60
2022/04/07 09:22:09;;;;;;;12.60;3.12;;;;;;;10.81;82.03;150371.47;1713983;82;21393;-60
2022/04/07 09:24:37;;;;;;;10.90;3.33;;;;;;;10.82;82.06;150374.06;1717284;81;21141;-61
2022/04/07 09:27:06;;;;;;;15.43;3.55;;;;;;;10.83;82.26;150376.66;1715509;81;21209;-63
2022/04/07 09:29:43;;;;;;;8.83;4.00;;;;;;;10.86;82.28;150384.44;1719787;82;21435;-60
2022/04/07 09:32:25;;;;;;;12.88;3.87;;;;;;;10.88;82.32;150389.63;1719219;81;21284;-61
2022/04/07 09:34:57;;;;;;;15.90;3.25;;;;;;;10.89;82.34;150392.22;1720888;81;21063;-61
2022/04/07 09:37:26;;;;;;;13.32;3.77;;;;;;;10.91;82.28;150394.80;1722988;81;21030;-61
2022/04/07 09:40:14;;;;;;;11.18;3.65;;;;;;;10.88;82.41;150389.63;1712910;81;21262;-59
2022/04/07 09:42:43;;;;;;;12.37;3.42;;;;;;;10.88;82.55;150389.63;1704895;82;21559;-60
2022/04/07 09:45:15;;;;;;;12.75;3.72;;;;;;;10.86;82.77;150384.44;1704462;82;22198;-61
2022/04/07 09:47:47;;;;;;;12.88;3.85;;;;;;;10.87;82.97;150387.02;1704153;83;21090;-61
2022/04/07 09:50:22;;;;;;;13.18;3.90;;;;;;;10.89;83.11;150392.22;1677728;84;21052;-60
2022/04/07 09:53:01;;;;;;;9.58;3.70;;;;;;;10.91;83.12;150394.80;1664102;84;21296;-60
2022/04/07 09:55:41;;;;;;;11.78;3.92;;;;;;;10.88;83.34;150389.63;1735776;82;20929;-60
2022/04/07 09:58:12;;;;;;;11.73;3.55;;;;;;;10.88;83.56;150388.34;1701924;82;21549;-59
2022/04/07 10:00:40;;;;;;;11.18;3.65;;;;;;;10.86;83.74;150384.44;1723326;82;21064;-60
2022/04/07 10:03:08;;;;;;;9.70;3.60;;;;;;;10.82;84.00;150374.06;1728988;82;21015;-61
2022/04/07 10:05:35;;;;;;;19.48;4.15;;;;;;;10.80;84.17;150367.55;1720088;82;21289;-60
2022/04/07 10:08:06;;;;;;;14.23;3.72;;;;;;;10.78;84.57;150363.69;1724021;82;20973;-59
2022/04/07 10:10:34;;;;;;;13.95;3.83;;;;;;;10.75;84.77;150357.17;1715305;82;21492;-59
2022/04/07 10:13:03;;;;;;;19.37;4.00;;;;;;;10.72;84.96;150348.06;1711618;82;21566;-59
2022/04/07 10:15:30;;;;;;;9.30;3.45;;;;;;;10.68;85.33;150337.70;1714732;82;21334;-60
2022/04/07 10:17:59;;;;;;;9.65;3.70;;;;;;;10.67;85.51;150336.42;1713096;82;21094;-60
2022/04/07 10:20:30;;;;;;;20.40;4.00;;;;;;;10.64;85.79;150327.33;1703797;82;21019;-60
2022/04/07 10:23:31;;;;;;;14.58;4.00;;;;;;;10.55;86.13;150306.58;1704339;82;21023;-60
2022/04/07 10:26:01;;;;;;;16.45;4.00;;;;;;;10.50;86.79;150293.61;1699347;82;21513;-60
2022/04/07 10:28:28;;;;;;;17.05;4.00;;;;;;;10.40;87.38;150267.59;1700502;84;21121;-60
2022/04/07 10:30:59;;;;;;;13.60;4.00;;;;;;;10.32;87.94;150248.13;1700475;82;21817;-60
2022/04/07 10:33:46;;;;;;;15.43;3.80;;;;;;;10.25;88.67;150231.25;1703817;83;21018;-59
2022/04/07 10:36:20;;;;;;;18.00;3.92;;;;;;;10.17;89.40;150210.50;1701558;82;21031;-60
2022/04/07 10:38:53;;;;;;;20.30;3.92;;;;;;;10.08;90.34;150187.17;1699909;82;21062;-61
2022/04/07 10:41:44;;;;;;;16.73;4.00;;;;;;;10.00;91.19;150168.98;1714366;82;21114;-61
2022/04/07 10:44:13;;;;;;;17.12;3.70;;;;;;;9.97;91.83;150161.20;1712740;82;21292;-61
2022/04/07 10:46:40;;;;;;;14.33;3.98;;;;;;;9.89;92.53;150141.75;1715825;82;21020;-61
2022/04/07 10:49:09;;;;;;;16.12;3.83;;;;;;;9.85;93.15;150130.11;1727343;82;21094;-61
2022/04/07 10:51:42;;;;;;;13.48;3.85;;;;;;;9.82;93.89;150122.28;1722759;81;21376;-59
2022/04/07 10:54:10;;;;;;;25.85;4.37;;;;;;;9.79;94.38;150114.50;1733016;82;21059;-59
2022/04/07 10:56:39;;;;;;;19.52;4.55;;;;;;;9.75;95.05;150106.73;1709208;82;21243;-61
2022/04/07 10:59:22;;;;;;;21.45;4.95;;;;;;;9.74;95.56;150104.14;1716991;82;21119;-59
2022/04/07 11:02:04;;;;;;;18.12;3.87;;;;;;;9.72;96.12;150098.95;1724559;82;21441;-59
2022/04/07 11:04:44;;;;;;;17.48;3.90;;;;;;;9.70;96.48;150093.78;1719206;82;21109;-60
2022/04/07 11:10:00;;;;;;;19.67;4.00;;;;;;;9.60;97.48;150067.81;1722995;81;21428;-60
2022/04/07 11:12:37;;;;;;;28.90;5.03;;;;;;;9.59;98.01;150065.22;1719138;82;21491;-61
2022/04/07 11:15:27;;;;;;;27.52;5.22;;;;;;;9.57;98.47;150060.03;1723677;82;21051;-61
2022/04/07 11:18:22;;;;;;;29.42;4.53;;;;;;;9.53;98.91;150051.00;1729302;82;21014;-60
2022/04/07 11:21:09;;;;;;;24.95;4.67;;;;;;;9.48;99.24;150036.72;1724780;82;21103;-61
2022/04/07 11:23:45;;;;;;;22.20;4.17;;;;;;;9.44;99.90;150028.95;1716368;81;20937;-59
2022/04/07 11:26:27;;;;;;;23.30;4.70;;;;;;;9.44;100.00;150028.95;1718277;82;21118;-60
2022/04/07 11:29:05;;;;;;;20.50;4.15;;;;;;;9.46;100.00;150032.81;1712539;81;21165;-61
2022/04/07 11:31:46;;;;;;;24.47;5.15;;;;;;;9.49;100.00;150040.58;1726285;81;21142;-59
2022/04/07 11:34:40;;;;;;;17.07;4.58;;;;;;;9.53;100.00;150049.67;1729878;82;21059;-62
2022/04/07 11:37:14;;;;;;;24.05;4.45;;;;;;;9.56;100.00;150057.45;1720609;82;21226;-59